Time;durP1;ratioP1;P1;durP2;ratioP2;P2;SDS_P1;SDS_P2;PMS_P1;PMS_P2;Temp;Humidity;BMP_temperature;BMP_pressure;BME280_temperature;BME280_humidity;BME280_pressure;Samples;Min_cycle;Max_cycle;Signal;HPM_P1;HPM_P2
2021/05/27 00:01:22;;;;;;;19.15;8.82;;;12.10;99.90;;;;;;5056581;28;20017;-66
2021/05/27 00:03:48;;;;;;;13.40;7.90;;;12.30;99.90;;;;;;5058149;28;20024;-66
2021/05/27 00:06:14;;;;;;;17.95;8.85;;;12.30;99.90;;;;;;5054634;28;20107;-66
2021/05/27 00:08:39;;;;;;;19.70;8.82;;;12.40;99.90;;;;;;5059034;28;20029;-66
2021/05/27 00:11:05;;;;;;;13.07;7.82;;;12.40;99.90;;;;;;5053979;28;20028;-66
2021/05/27 00:13:30;;;;;;;17.25;8.23;;;12.20;99.90;;;;;;5060368;28;20101;-66
2021/05/27 00:15:56;;;;;;;19.65;8.70;;;12.30;99.90;;;;;;5053403;28;20032;-66
2021/05/27 00:18:22;;;;;;;21.42;9.05;;;12.40;99.90;;;;;;5059824;28;20481;-66
2021/05/27 00:20:47;;;;;;;18.88;8.23;;;12.40;99.90;;;;;;5053723;28;20021;-66
2021/05/27 00:23:13;;;;;;;25.65;9.45;;;12.30;99.90;;;;;;5059601;28;20104;-66
2021/05/27 00:25:39;;;;;;;17.08;7.90;;;12.20;99.90;;;;;;5053675;28;20412;-66
2021/05/27 00:28:04;;;;;;;14.48;8.20;;;12.10;99.90;;;;;;5059878;28;20124;-67
2021/05/27 00:30:30;;;;;;;16.60;8.65;;;12.20;99.90;;;;;;5053032;28;20380;-67
2021/05/27 00:32:56;;;;;;;17.10;8.38;;;12.20;99.90;;;;;;5060378;28;20115;-66
2021/05/27 00:35:21;;;;;;;18.15;8.68;;;12.20;99.90;;;;;;5051922;28;20029;-66
2021/05/27 00:37:47;;;;;;;20.45;8.85;;;12.10;99.90;;;;;;5061278;28;20102;-66
2021/05/27 00:40:15;;;;;;;19.48;9.43;;;11.90;99.90;;;;;;5050773;28;20025;-67
2021/05/27 00:42:42;;;;;;;21.05;8.50;;;11.90;99.90;;;;;;5061545;28;20032;-66
2021/05/27 00:45:10;;;;;;;18.80;8.85;;;12.00;99.90;;;;;;5050934;28;20058;-66
2021/05/27 00:47:36;;;;;;;14.07;8.30;;;11.90;99.90;;;;;;5061361;28;20436;-66
2021/05/27 00:50:03;;;;;;;14.95;8.00;;;12.10;99.90;;;;;;5051132;28;20025;-66
2021/05/27 00:52:31;;;;;;;13.20;7.55;;;11.90;99.90;;;;;;5061229;28;20028;-66
2021/05/27 00:54:59;;;;;;;10.32;7.60;;;12.10;99.90;;;;;;5050636;28;20604;-66
2021/05/27 00:57:33;;;;;;;11.00;7.80;;;12.10;99.90;;;;;;5060944;28;20052;-66
2021/05/27 01:00:00;;;;;;;16.10;8.00;;;12.10;99.90;;;;;;5050479;28;20079;-67
2021/05/27 01:02:26;;;;;;;18.85;8.13;;;11.90;99.90;;;;;;5061787;28;20108;-67
2021/05/27 01:04:53;;;;;;;15.10;8.48;;;11.90;99.90;;;;;;5050572;28;20036;-67
2021/05/27 01:07:19;;;;;;;21.10;8.35;;;11.90;99.90;;;;;;5061198;28;20020;-66
2021/05/27 01:09:45;;;;;;;13.48;7.80;;;11.70;99.90;;;;;;5050462;28;20482;-67
2021/05/27 01:12:11;;;;;;;18.17;8.48;;;11.90;99.90;;;;;;5061138;28;20029;-66
2021/05/27 01:17:23;;;;;;;19.40;8.18;;;11.90;99.90;;;;;;5061440;28;20073;-66
2021/05/27 01:19:51;;;;;;;15.02;8.10;;;11.90;99.90;;;;;;5050733;28;20032;-66
2021/05/27 01:22:17;;;;;;;17.52;7.72;;;11.90;99.90;;;;;;5061048;28;20032;-66
2021/05/27 01:24:43;;;;;;;14.13;7.88;;;11.70;99.90;;;;;;5050453;28;20021;-67
2021/05/27 01:27:09;;;;;;;10.70;7.57;;;11.70;99.90;;;;;;5059891;28;20381;-66
2021/05/27 01:29:35;;;;;;;10.90;7.10;;;11.50;99.90;;;;;;5049907;28;20120;-66
2021/05/27 01:32:00;;;;;;;12.13;7.75;;;11.60;99.90;;;;;;5059646;28;20094;-66
2021/05/27 01:34:26;;;;;;;12.93;7.60;;;11.70;99.90;;;;;;5051662;28;20032;-66
2021/05/27 01:36:52;;;;;;;13.02;7.97;;;11.60;99.90;;;;;;5058134;28;20044;-66
2021/05/27 01:39:17;;;;;;;15.63;7.50;;;11.60;99.90;;;;;;5052814;28;20119;-66
2021/05/27 01:41:43;;;;;;;14.40;8.27;;;11.50;99.90;;;;;;5056279;28;20088;-66
2021/05/27 01:44:08;;;;;;;20.73;8.13;;;11.00;99.90;;;;;;5053805;28;20025;-66
2021/05/27 01:46:34;;;;;;;19.80;6.90;;;11.30;99.90;;;;;;5055673;28;20027;-66
2021/05/27 01:49:01;;;;;;;9.23;6.82;;;11.40;99.90;;;;;;5054871;28;20041;-66
2021/05/27 01:51:27;;;;;;;15.57;6.50;;;11.50;99.90;;;;;;5054494;28;20017;-67
2021/05/27 01:53:53;;;;;;;11.30;7.65;;;11.50;99.90;;;;;;5055892;28;20099;-66
2021/05/27 01:56:19;;;;;;;14.10;8.45;;;11.40;99.90;;;;;;5053403;28;20029;-66
2021/05/27 01:58:44;;;;;;;20.30;7.78;;;11.40;99.90;;;;;;5056541;28;20029;-66
2021/05/27 02:01:10;;;;;;;13.57;6.35;;;11.40;99.90;;;;;;5052061;28;20033;-67
2021/05/27 02:03:36;;;;;;;11.23;7.63;;;11.40;99.90;;;;;;5058417;28;20078;-67
2021/05/27 02:06:01;;;;;;;14.70;7.45;;;11.20;99.90;;;;;;5051783;28;20021;-66
2021/05/27 02:08:27;;;;;;;8.35;6.97;;;11.40;99.90;;;;;;5058028;28;20048;-66
2021/05/27 02:10:53;;;;;;;15.27;8.20;;;11.30;99.90;;;;;;5051486;28;20096;-67
2021/05/27 02:13:18;;;;;;;13.00;7.75;;;11.20;99.90;;;;;;5058126;28;20032;-66
2021/05/27 02:15:44;;;;;;;16.80;7.43;;;11.20;99.90;;;;;;5052003;28;20484;-66
2021/05/27 02:18:11;;;;;;;19.30;7.63;;;11.10;99.90;;;;;;5058413;28;20021;-66
2021/05/27 02:20:36;;;;;;;12.00;7.68;;;11.20;99.90;;;;;;5051661;28;20049;-66
2021/05/27 02:23:02;;;;;;;14.85;8.02;;;11.20;99.90;;;;;;5058297;28;20056;-67
2021/05/27 02:25:28;;;;;;;15.70;7.95;;;11.00;99.90;;;;;;5049978;28;20013;-66
2021/05/27 02:27:55;;;;;;;16.88;7.10;;;11.00;99.90;;;;;;5059296;28;20033;-67
2021/05/27 02:30:22;;;;;;;18.38;7.47;;;11.20;99.90;;;;;;5049733;28;20021;-66
2021/05/27 02:32:47;;;;;;;19.63;8.48;;;11.30;99.90;;;;;;5058465;28;20514;-66
2021/05/27 02:35:13;;;;;;;13.45;7.50;;;11.10;99.90;;;;;;5068474;28;20057;-67
2021/05/27 02:37:39;;;;;;;15.45;6.82;;;11.30;99.90;;;;;;5059757;28;20049;-66
2021/05/27 02:40:06;;;;;;;12.23;7.22;;;11.30;99.90;;;;;;5049338;28;20493;-67
2021/05/27 02:42:32;;;;;;;12.00;6.72;;;11.20;99.90;;;;;;5057241;28;20044;-66
2021/05/27 02:44:57;;;;;;;12.35;7.38;;;11.20;99.90;;;;;;5069543;28;20397;-66
2021/05/27 02:47:23;;;;;;;16.88;7.28;;;10.90;99.90;;;;;;5061619;28;20133;-66
2021/05/27 02:49:49;;;;;;;14.35;7.20;;;10.90;99.90;;;;;;5049373;28;20505;-66
2021/05/27 02:52:14;;;;;;;13.98;7.50;;;11.10;99.90;;;;;;5060230;28;20013;-66
2021/05/27 02:54:40;;;;;;;14.48;7.10;;;11.00;99.90;;;;;;5049191;28;20112;-66
2021/05/27 02:57:06;;;;;;;11.43;6.45;;;10.80;99.90;;;;;;5058678;28;20099;-67
2021/05/27 02:59:32;;;;;;;16.77;7.40;;;10.80;99.90;;;;;;5049801;28;20036;-66
2021/05/27 03:01:57;;;;;;;11.40;6.75;;;10.80;99.90;;;;;;5057984;28;20028;-67
2021/05/27 03:04:23;;;;;;;10.63;6.65;;;10.70;99.90;;;;;;5051347;28;20470;-67
2021/05/27 03:06:49;;;;;;;10.70;7.15;;;10.80;99.90;;;;;;5056211;28;20086;-66
2021/05/27 03:09:14;;;;;;;10.60;6.72;;;10.60;99.90;;;;;;5052426;28;20039;-66
2021/05/27 03:11:40;;;;;;;13.60;6.68;;;10.80;99.90;;;;;;5058280;28;20107;-66
2021/05/27 03:14:06;;;;;;;14.55;6.90;;;10.90;99.90;;;;;;5057343;28;20051;-66
2021/05/27 03:16:31;;;;;;;14.23;6.78;;;10.70;99.90;;;;;;5057809;28;20024;-66
2021/05/27 03:18:57;;;;;;;11.68;6.10;;;10.50;99.90;;;;;;5058544;28;20043;-66
2021/05/27 03:21:23;;;;;;;12.95;6.82;;;10.70;99.90;;;;;;5056024;28;20022;-66
2021/05/27 03:23:48;;;;;;;8.52;5.93;;;10.70;99.90;;;;;;5059445;28;20104;-66
2021/05/27 03:26:15;;;;;;;15.98;7.60;;;10.70;99.90;;;;;;5054930;28;20028;-66
2021/05/27 03:28:41;;;;;;;13.75;7.00;;;10.50;99.90;;;;;;5060176;28;20040;-66
2021/05/27 03:31:06;;;;;;;11.15;6.93;;;10.60;99.90;;;;;;5054428;28;20154;-66
2021/05/27 03:33:32;;;;;;;13.68;6.78;;;10.70;99.90;;;;;;5061311;28;20104;-66
2021/05/27 03:35:58;;;;;;;15.20;7.00;;;10.60;99.90;;;;;;5054412;28;21003;-66
2021/05/27 03:38:24;;;;;;;15.82;7.65;;;10.70;99.90;;;;;;5060317;28;20041;-66
2021/05/27 03:40:49;;;;;;;12.02;7.15;;;10.60;99.90;;;;;;5053943;28;20017;-67
2021/05/27 03:43:15;;;;;;;11.45;7.18;;;10.30;99.90;;;;;;5060895;28;20408;-66
2021/05/27 03:45:41;;;;;;;12.70;7.38;;;10.30;99.90;;;;;;5053920;28;20017;-66
2021/05/27 03:48:06;;;;;;;13.13;7.25;;;10.30;99.90;;;;;;5060444;28;20031;-66
2021/05/27 03:50:33;;;;;;;14.82;7.28;;;10.40;99.90;;;;;;5053190;28;20431;-66
2021/05/27 03:53:00;;;;;;;17.30;7.15;;;10.50;99.90;;;;;;5060732;28;20029;-66
2021/05/27 03:55:27;;;;;;;12.23;7.18;;;10.50;99.90;;;;;;5051822;28;20394;-66
2021/05/27 03:57:53;;;;;;;13.13;6.03;;;10.30;99.90;;;;;;5061784;28;20096;-66
2021/05/27 04:00:45;;;;;;;17.17;6.03;;;10.40;99.90;;;;;;5051798;28;20104;-66
2021/05/27 04:03:11;;;;;;;14.40;6.47;;;10.40;99.90;;;;;;5050437;28;20032;-66
2021/05/27 04:08:22;;;;;;;17.58;6.68;;;10.50;99.90;;;;;;5060274;28;20056;-66
2021/05/27 04:10:48;;;;;;;14.13;6.90;;;10.30;99.90;;;;;;5053989;28;20087;-66
2021/05/27 04:13:14;;;;;;;14.73;7.07;;;10.30;99.90;;;;;;5060209;28;20469;-66
2021/05/27 04:15:40;;;;;;;18.77;7.63;;;10.20;99.90;;;;;;5053978;28;20017;-66
2021/05/27 04:18:17;;;;;;;14.00;7.05;;;10.20;99.90;;;;;;5059946;28;20125;-66
2021/05/27 04:20:45;;;;;;;14.90;7.15;;;10.30;99.90;;;;;;5053766;28;20094;-66
2021/05/27 04:23:15;;;;;;;13.77;6.95;;;10.40;99.90;;;;;;5059596;28;20021;-66
2021/05/27 04:25:41;;;;;;;12.75;6.63;;;10.30;99.90;;;;;;5053828;28;20097;-66
2021/05/27 04:28:08;;;;;;;15.70;6.78;;;10.00;99.90;;;;;;5059860;28;20035;-66
2021/05/27 04:31:08;;;;;;;14.65;6.88;;;10.30;99.90;;;;;;5052772;28;20416;-66
2021/05/27 04:33:22;;;;;;;9.57;6.53;;;10.20;99.90;;;;;;5059713;28;20040;-66
2021/05/27 04:35:48;;;;;;;10.23;5.93;;;10.30;99.90;;;;;;5053281;28;20066;-66
2021/05/27 04:38:16;;;;;;;15.00;5.95;;;10.20;99.90;;;;;;5059099;28;20052;-66
2021/05/27 04:40:47;;;;;;;11.90;5.68;;;10.30;99.90;;;;;;5052907;28;20045;-66
2021/05/27 04:43:16;;;;;;;13.75;6.95;;;10.20;99.90;;;;;;5059709;28;20025;-66
2021/05/27 04:45:41;;;;;;;18.20;6.30;;;10.40;99.90;;;;;;5053252;28;20052;-66
2021/05/27 04:48:13;;;;;;;7.80;5.45;;;10.20;99.90;;;;;;5059516;28;20481;-66
2021/05/27 04:50:40;;;;;;;8.90;6.40;;;10.30;99.90;;;;;;5053050;28;20025;-66
2021/05/27 04:53:06;;;;;;;17.50;6.93;;;10.50;99.90;;;;;;5059134;28;20500;-66
2021/05/27 04:55:32;;;;;;;16.77;6.93;;;10.30;99.90;;;;;;5051465;28;20056;-66
2021/05/27 04:57:58;;;;;;;16.48;7.15;;;10.00;99.90;;;;;;5060421;28;20033;-66
2021/05/27 05:00:25;;;;;;;14.82;6.85;;;9.80;99.90;;;;;;5050917;28;20055;-66
2021/05/27 05:02:53;;;;;;;14.23;6.85;;;10.00;99.90;;;;;;5061411;28;20572;-66
2021/05/27 05:05:20;;;;;;;13.05;6.60;;;10.10;99.90;;;;;;5060374;28;20074;-66
2021/05/27 05:07:46;;;;;;;15.23;6.30;;;10.30;99.90;;;;;;5064657;28;20040;-66
2021/05/27 05:10:13;;;;;;;9.30;6.50;;;10.40;99.90;;;;;;5069116;28;20520;-67
2021/05/27 05:12:51;;;;;;;12.80;6.70;;;10.30;99.90;;;;;;5064028;28;20560;-66
2021/05/27 05:15:19;;;;;;;20.85;7.03;;;10.30;99.90;;;;;;5047767;28;20035;-66
2021/05/27 05:18:05;;;;;;;16.67;7.30;;;10.20;99.90;;;;;;5061399;28;20025;-66
2021/05/27 05:20:36;;;;;;;19.40;6.78;;;10.20;99.90;;;;;;5050073;28;20025;-66
2021/05/27 05:23:03;;;;;;;19.40;6.82;;;10.20;99.90;;;;;;5060485;28;20359;-67
2021/05/27 05:25:30;;;;;;;21.38;7.82;;;10.40;99.90;;;;;;5067481;28;20036;-67
2021/05/27 05:27:56;;;;;;;16.50;7.57;;;10.60;99.90;;;;;;5066855;28;20106;-67
2021/05/27 05:30:23;;;;;;;18.33;7.50;;;10.60;99.90;;;;;;5050633;28;20444;-66
2021/05/27 05:32:49;;;;;;;15.57;7.57;;;10.40;99.90;;;;;;5066335;28;20119;-66
2021/05/27 05:35:17;;;;;;;16.83;7.68;;;10.40;99.90;;;;;;5067698;28;20035;-67
2021/05/27 05:37:44;;;;;;;22.58;7.45;;;10.50;99.90;;;;;;5066313;28;20040;-66
2021/05/27 05:40:11;;;;;;;18.92;7.45;;;10.60;99.90;;;;;;5052858;28;20476;-66
2021/05/27 05:42:38;;;;;;;26.15;7.82;;;10.50;99.90;;;;;;5066060;28;20075;-66
2021/05/27 05:45:06;;;;;;;17.88;6.85;;;10.50;99.90;;;;;;5070233;28;20025;-70
2021/05/27 05:47:32;;;;;;;22.30;7.35;;;10.40;99.90;;;;;;5061331;28;20028;-67
2021/05/27 05:49:57;;;;;;;16.38;7.80;;;10.50;99.90;;;;;;5050031;28;20055;-66
2021/05/27 05:52:23;;;;;;;16.23;6.97;;;10.60;99.90;;;;;;5060619;28;20085;-66
2021/05/27 05:54:49;;;;;;;18.63;7.53;;;10.80;99.90;;;;;;5050004;28;20029;-66
2021/05/27 05:57:15;;;;;;;16.38;7.03;;;10.70;99.90;;;;;;5060221;28;20042;-66
2021/05/27 05:59:40;;;;;;;16.80;7.65;;;10.90;99.90;;;;;;5049883;28;20051;-66
2021/05/27 06:02:07;;;;;;;13.80;7.43;;;10.80;99.90;;;;;;5059115;28;20477;-66
2021/05/27 06:04:33;;;;;;;17.15;8.70;;;11.00;99.90;;;;;;5069645;28;20065;-66
2021/05/27 06:06:58;;;;;;;16.90;7.63;;;11.30;99.90;;;;;;5067844;28;20039;-66
2021/05/27 06:09:25;;;;;;;19.63;7.90;;;11.30;99.90;;;;;;5050385;28;20033;-66
2021/05/27 06:11:52;;;;;;;17.33;7.88;;;11.30;99.90;;;;;;5054575;28;20114;-66
2021/05/27 06:14:18;;;;;;;21.05;7.78;;;11.80;99.90;;;;;;5046966;28;20551;-66
2021/05/27 06:16:44;;;;;;;15.52;7.28;;;11.50;99.90;;;;;;5054664;28;20031;-66
2021/05/27 06:19:09;;;;;;;17.08;7.85;;;11.60;99.90;;;;;;5052905;28;20389;-66
2021/05/27 06:21:35;;;;;;;16.88;7.85;;;11.70;99.90;;;;;;5053763;28;20027;-67
2021/05/27 06:24:01;;;;;;;22.77;8.80;;;11.90;99.90;;;;;;5055117;28;20025;-67
2021/05/27 06:26:27;;;;;;;20.27;8.35;;;12.10;99.90;;;;;;5053072;28;20436;-66
2021/05/27 06:28:53;;;;;;;15.57;7.32;;;12.00;99.90;;;;;;5068807;28;20028;-65
2021/05/27 06:31:19;;;;;;;17.42;7.15;;;12.20;99.90;;;;;;5065789;28;20017;-65
2021/05/27 06:33:44;;;;;;;16.13;7.75;;;12.20;99.90;;;;;;5069628;28;20029;-65
2021/05/27 06:36:13;;;;;;;16.45;7.70;;;12.30;99.90;;;;;;5063468;28;20092;-63
2021/05/27 06:38:39;;;;;;;15.98;7.95;;;12.50;99.90;;;;;;5060434;28;20049;-65
2021/05/27 06:41:07;;;;;;;25.02;7.65;;;12.50;99.90;;;;;;5063411;28;20587;-65
2021/05/27 06:43:33;;;;;;;28.05;8.63;;;12.60;99.90;;;;;;5057851;28;20051;-65
2021/05/27 06:45:58;;;;;;;20.83;7.82;;;12.80;99.90;;;;;;5053653;28;20012;-65
2021/05/27 06:48:24;;;;;;;28.98;8.63;;;12.80;99.90;;;;;;5061735;28;20048;-65
2021/05/27 06:50:50;;;;;;;27.50;8.05;;;12.80;99.90;;;;;;5055521;28;20016;-66
2021/05/27 06:53:17;;;;;;;33.92;8.10;;;12.90;99.90;;;;;;5061452;28;20029;-66
2021/05/27 06:55:44;;;;;;;38.05;7.65;;;13.10;99.90;;;;;;5055380;28;20075;-66
2021/05/27 06:58:10;;;;;;;37.33;9.30;;;13.30;99.90;;;;;;5068747;28;20081;-65
2021/05/27 07:00:37;;;;;;;33.05;8.77;;;13.40;99.90;;;;;;5071069;28;20024;-66
2021/05/27 07:03:04;;;;;;;22.70;7.50;;;13.50;99.90;;;;;;5070615;28;20027;-65
2021/05/27 07:05:30;;;;;;;13.18;6.75;;;13.50;99.90;;;;;;5070511;28;20040;-60
2021/05/27 07:07:57;;;;;;;17.85;7.05;;;13.90;99.90;;;;;;5062677;28;20028;-70
2021/05/27 07:10:23;;;;;;;16.25;7.10;;;14.10;99.90;;;;;;5052031;28;20048;-67
2021/05/27 07:12:49;;;;;;;17.52;7.00;;;13.90;99.90;;;;;;5063454;28;20067;-66
2021/05/27 07:15:16;;;;;;;23.92;8.20;;;14.10;99.90;;;;;;5052427;28;20388;-64
2021/05/27 07:17:42;;;;;;;15.23;6.65;;;14.10;99.90;;;;;;5063604;28;20021;-66
2021/05/27 07:20:08;;;;;;;21.13;7.15;;;14.00;99.90;;;;;;5052668;28;20040;-66
2021/05/27 07:22:33;;;;;;;20.10;7.30;;;14.30;99.90;;;;;;5063093;28;20107;-65
2021/05/27 07:25:00;;;;;;;28.10;7.50;;;14.50;99.90;;;;;;5052594;28;20566;-65
2021/05/27 07:27:25;;;;;;;25.08;7.25;;;14.70;99.90;;;;;;5062763;28;20034;-66
2021/05/27 07:29:51;;;;;;;18.30;7.28;;;14.80;99.90;;;;;;5052675;28;20036;-65
2021/05/27 07:32:17;;;;;;;30.42;7.88;;;14.90;99.90;;;;;;5063146;28;20024;-65
2021/05/27 07:34:45;;;;;;;18.33;7.03;;;14.90;99.90;;;;;;5052409;28;20025;-65
2021/05/27 07:37:12;;;;;;;16.17;6.25;;;14.90;99.90;;;;;;5042244;28;20045;-65
2021/05/27 07:39:37;;;;;;;22.05;7.38;;;15.10;99.90;;;;;;5016868;28;20033;-66
2021/05/27 07:42:06;;;;;;;21.38;7.20;;;15.30;99.90;;;;;;5025523;28;20028;-65
2021/05/27 07:44:35;;;;;;;20.98;7.70;;;15.20;99.90;;;;;;5014026;28;20028;-66
2021/05/27 07:47:01;;;;;;;18.23;7.25;;;15.40;99.90;;;;;;5030192;28;20468;-67
2021/05/27 07:49:27;;;;;;;30.85;8.98;;;15.70;99.90;;;;;;5030761;28;20398;-66
2021/05/27 07:51:54;;;;;;;28.20;7.45;;;15.80;99.90;;;;;;5025697;28;20057;-65
2021/05/27 07:54:20;;;;;;;36.60;8.60;;;15.80;99.90;;;;;;5047574;28;20020;-66
2021/05/27 07:56:46;;;;;;;44.08;8.75;;;16.00;99.90;;;;;;5036182;28;20643;-65
2021/05/27 07:59:13;;;;;;;35.15;9.27;;;15.90;99.90;;;;;;5041998;28;20094;-65
2021/05/27 08:01:40;;;;;;;32.72;8.05;;;16.00;99.90;;;;;;5033174;28;20021;-66
2021/05/27 08:04:05;;;;;;;26.33;8.02;;;16.20;99.90;;;;;;5037819;28;20064;-65
2021/05/27 08:06:31;;;;;;;25.73;7.30;;;16.20;99.90;;;;;;5036051;28;20598;-66
2021/05/27 08:08:57;;;;;;;35.50;8.23;;;16.20;99.90;;;;;;5025153;28;20037;-66
2021/05/27 08:11:22;;;;;;;31.73;8.18;;;16.50;99.90;;;;;;5023962;28;20018;-65
2021/05/27 08:13:48;;;;;;;40.75;8.45;;;16.60;99.90;;;;;;5019210;28;20037;-65
2021/05/27 08:16:14;;;;;;;31.70;9.05;;;16.60;99.90;;;;;;5014435;28;20029;-66
2021/05/27 08:18:40;;;;;;;23.45;8.10;;;16.80;99.90;;;;;;5020449;28;20410;-62
2021/05/27 08:21:08;;;;;;;22.55;7.90;;;16.90;99.90;;;;;;5014106;28;20030;-62
2021/05/27 08:23:34;;;;;;;27.52;8.20;;;17.00;99.90;;;;;;5019823;28;20029;-62
2021/05/27 08:26:00;;;;;;;33.13;7.72;;;16.90;99.90;;;;;;5013236;28;20026;-62
2021/05/27 08:28:26;;;;;;;25.23;8.07;;;17.00;99.90;;;;;;5020028;28;20041;-63
2021/05/27 08:30:52;;;;;;;20.02;7.18;;;17.30;99.90;;;;;;5013698;28;20025;-62
2021/05/27 08:33:18;;;;;;;22.50;8.65;;;17.70;99.90;;;;;;5020116;28;20052;-62
2021/05/27 08:35:43;;;;;;;38.72;8.95;;;17.70;99.90;;;;;;5013362;28;20502;-62
2021/05/27 08:38:09;;;;;;;25.52;7.65;;;17.60;99.90;;;;;;5050696;28;20048;-62
2021/05/27 08:40:35;;;;;;;35.78;8.75;;;17.40;99.90;;;;;;5051458;28;20091;-62
2021/05/27 08:43:01;;;;;;;29.23;9.00;;;17.40;99.90;;;;;;5066157;28;20016;-63
2021/05/27 08:45:30;;;;;;;27.42;8.52;;;17.50;99.90;;;;;;5068921;28;20036;-64
2021/05/27 08:47:56;;;;;;;33.63;9.40;;;17.50;99.90;;;;;;5060058;28;20473;-62
2021/05/27 08:50:34;;;;;;;39.53;8.55;;;17.50;99.90;;;;;;5069775;28;20485;-63
2021/05/27 08:53:00;;;;;;;26.38;8.25;;;17.90;99.90;;;;;;5059988;28;20477;-62
2021/05/27 08:55:26;;;;;;;23.63;7.70;;;18.10;99.90;;;;;;5068738;28;20099;-62
2021/05/27 08:57:51;;;;;;;20.92;7.45;;;18.40;99.90;;;;;;5061601;28;20603;-62
2021/05/27 09:00:18;;;;;;;20.85;6.82;;;18.60;99.90;;;;;;5050625;28;20029;-62
2021/05/27 09:03:00;;;;;;;25.58;7.75;;;18.60;99.90;;;;;;5064782;28;20062;-62
2021/05/27 09:05:27;;;;;;;21.02;7.07;;;18.70;99.90;;;;;;5068591;28;20480;-62
2021/05/27 09:07:53;;;;;;;24.05;8.00;;;18.80;99.90;;;;;;5060947;28;20091;-62
2021/05/27 09:10:18;;;;;;;15.55;6.75;;;18.90;99.90;;;;;;5050598;28;20537;-63
2021/05/27 09:12:44;;;;;;;16.73;6.72;;;18.80;99.90;;;;;;5061383;28;20113;-62
2021/05/27 09:15:16;;;;;;;23.27;7.13;;;18.70;99.90;;;;;;5050657;28;20040;-63
2021/05/27 09:17:53;;;;;;;20.17;6.78;;;18.90;99.90;;;;;;5059083;28;20043;-64
2021/05/27 09:20:20;;;;;;;24.75;7.28;;;18.70;99.90;;;;;;5069494;28;20032;-63
2021/05/27 09:22:48;;;;;;;23.35;7.20;;;18.60;99.90;;;;;;5060805;28;20063;-63
2021/05/27 09:25:29;;;;;;;16.65;6.35;;;19.10;99.90;;;;;;5049622;28;20052;-63
2021/05/27 09:27:55;;;;;;;24.92;7.30;;;19.20;99.90;;;;;;5058889;28;20025;-63
2021/05/27 09:30:22;;;;;;;21.30;6.85;;;19.40;99.90;;;;;;5069400;28;20025;-63
2021/05/27 09:32:50;;;;;;;18.35;7.10;;;19.50;99.90;;;;;;5061102;28;20032;-63
2021/05/27 09:35:17;;;;;;;14.40;7.05;;;19.70;99.90;;;;;;5049782;28;20032;-63
2021/05/27 09:38:01;;;;;;;24.77;7.05;;;19.80;99.90;;;;;;5057872;28;20568;-63
2021/05/27 09:40:31;;;;;;;18.52;7.30;;;19.80;99.90;;;;;;5067773;28;20451;-64
2021/05/27 09:42:58;;;;;;;14.07;6.43;;;20.00;99.90;;;;;;5060641;28;20096;-63
2021/05/27 09:45:29;;;;;;;17.80;8.65;;;20.00;99.90;;;;;;5068304;28;20025;-63
2021/05/27 09:47:55;;;;;;;28.65;8.77;;;20.10;99.90;;;;;;5058982;28;20546;-63
2021/05/27 09:50:31;;;;;;;16.95;8.50;;;20.10;99.90;;;;;;5071073;28;20477;-63
2021/05/27 09:53:30;;;;;;;22.88;8.45;;;20.40;99.90;;;;;;5064679;28;20101;-63
2021/05/27 09:55:56;;;;;;;25.50;8.68;;;20.60;99.90;;;;;;5020613;28;20036;-63
2021/05/27 09:58:23;;;;;;;22.65;8.82;;;20.20;99.90;;;;;;5058735;28;20021;-68
2021/05/27 10:00:51;;;;;;;29.00;8.98;;;20.40;99.90;;;;;;5052152;28;20365;-68
2021/05/27 10:03:30;;;;;;;10.00;6.03;;;20.80;99.90;;;;;;5058491;28;20108;-68
2021/05/27 10:05:59;;;;;;;13.88;6.47;;;20.70;99.90;;;;;;5051852;28;20032;-68
2021/05/27 10:08:25;;;;;;;21.40;6.57;;;21.00;99.90;;;;;;5066795;28;20503;-68
2021/05/27 10:10:52;;;;;;;19.15;6.72;;;20.90;99.90;;;;;;5066267;28;20031;-68
2021/05/27 10:13:23;;;;;;;13.68;7.00;;;21.00;99.90;;;;;;5058067;28;20473;-68
2021/05/27 10:15:49;;;;;;;25.98;7.82;;;20.70;99.90;;;;;;5051831;28;20021;-68
2021/05/27 10:18:17;;;;;;;13.48;6.40;;;20.90;99.90;;;;;;5058173;28;20087;-68
2021/05/27 10:20:43;;;;;;;21.33;7.57;;;21.30;99.90;;;;;;5052795;28;20024;-68
2021/05/27 10:23:09;;;;;;;23.15;7.07;;;21.60;99.90;;;;;;5066444;28;20029;-68
2021/05/27 10:25:35;;;;;;;16.60;7.88;;;21.50;99.90;;;;;;5053688;28;20103;-68
2021/05/27 10:28:06;;;;;;;11.98;6.10;;;21.30;99.90;;;;;;5063742;28;20087;-68
2021/05/27 10:30:37;;;;;;;15.57;6.47;;;21.70;99.90;;;;;;5053937;28;20025;-68
2021/05/27 10:33:06;;;;;;;11.00;6.25;;;21.80;99.90;;;;;;5063424;28;20055;-68
2021/05/27 10:35:45;;;;;;;12.77;6.20;;;21.50;99.90;;;;;;5053528;28;20013;-74
2021/05/27 10:38:11;;;;;;;11.18;6.18;;;21.70;99.90;;;;;;5066605;28;20512;-74
2021/05/27 10:40:37;;;;;;;11.05;5.22;;;22.10;99.90;;;;;;5067414;28;20021;-75
2021/05/27 10:43:09;;;;;;;14.02;5.40;;;22.00;99.90;;;;;;5068545;28;20477;-75
2021/05/27 10:45:55;;;;;;;9.43;5.85;;;22.20;99.90;;;;;;5070342;28;20035;-75
2021/05/27 10:48:23;;;;;;;8.07;6.20;;;22.20;99.90;;;;;;5070859;28;20028;-75
2021/05/27 10:51:18;;;;;;;14.65;6.05;;;22.40;99.90;;;;;;5052470;28;20033;-74
2021/05/27 10:53:41;;;;;;;9.20;5.95;;;22.10;99.90;;;;;;5073731;28;20043;-75
2021/05/27 10:56:11;;;;;;;14.02;5.65;;;22.00;99.90;;;;;;5070583;28;20389;-75
2021/05/27 10:58:49;;;;;;;8.07;5.53;;;22.40;99.90;;;;;;5071554;28;20016;-75
2021/05/27 11:01:17;;;;;;;15.02;5.47;;;22.70;99.90;;;;;;5068369;28;20059;-75
2021/05/27 11:03:49;;;;;;;8.27;4.80;;;22.80;99.90;;;;;;5061304;28;20029;-75
2021/05/27 11:06:34;;;;;;;11.02;5.35;;;23.10;99.90;;;;;;5054383;28;20029;-75
2021/05/27 11:09:23;;;;;;;11.67;5.67;;;23.00;99.90;;;;;;5065843;28;20485;-75
2021/05/27 11:11:48;;;;;;;14.10;6.25;;;23.20;99.90;;;;;;5053336;28;20028;-75
2021/05/27 11:14:27;;;;;;;12.60;5.55;;;23.50;99.90;;;;;;5057094;28;20052;-75
2021/05/27 11:17:02;;;;;;;10.27;5.43;;;23.70;99.90;;;;;;5059601;28;20035;-75
2021/05/27 11:25:13;;;;;;;17.75;6.43;;;23.30;99.90;;;;;;5052351;28;20064;-75
2021/05/27 11:27:55;;;;;;;17.52;5.63;;;23.60;99.90;;;;;;5046494;28;20036;-74
2021/05/27 11:30:29;;;;;;;17.10;6.20;;;24.30;99.90;;;;;;5053239;28;20039;-72
2021/05/27 11:33:05;;;;;;;16.25;6.25;;;24.30;99.90;;;;;;5062946;28;20490;-71
2021/05/27 11:35:43;;;;;;;19.30;6.10;;;24.40;99.90;;;;;;5052118;28;20046;-71
2021/05/27 11:38:11;;;;;;;11.95;5.68;;;24.70;99.80;;;;;;5062220;28;20041;-71
2021/05/27 11:40:44;;;;;;;19.83;6.28;;;24.20;99.10;;;;;;5068722;28;20143;-70
2021/05/27 11:43:10;;;;;;;12.57;5.68;;;24.20;99.90;;;;;;5069264;28;20031;-71
2021/05/27 11:45:50;;;;;;;9.02;5.80;;;24.50;99.50;;;;;;5070777;28;22580;-69
2021/05/27 11:48:25;;;;;;;11.35;6.00;;;24.40;99.70;;;;;;5071256;28;20054;-70
2021/05/27 11:51:17;;;;;;;12.25;5.40;;;25.10;99.90;;;;;;5069169;28;20029;-69
2021/05/27 11:53:47;;;;;;;12.85;6.15;;;25.20;98.80;;;;;;5066805;28;20041;-69
2021/05/27 11:56:25;;;;;;;10.48;5.43;;;25.10;99.90;;;;;;5067276;28;20025;-69
2021/05/27 11:58:51;;;;;;;24.52;6.70;;;24.70;98.40;;;;;;5053437;28;20104;-69
2021/05/27 12:01:22;;;;;;;38.40;7.68;;;25.40;99.80;;;;;;5069863;28;20095;-69
2021/05/27 12:04:08;;;;;;;9.27;5.63;;;25.30;98.90;;;;;;5058521;28;20024;-69
2021/05/27 12:06:46;;;;;;;13.60;5.68;;;25.60;98.20;;;;;;5067355;28;20028;-69
2021/05/27 12:09:12;;;;;;;11.25;5.28;;;25.30;98.50;;;;;;5065871;28;20045;-69
2021/05/27 12:11:40;;;;;;;15.88;5.53;;;26.00;97.40;;;;;;5063986;28;20047;-69
2021/05/27 12:14:06;;;;;;;10.23;5.15;;;25.20;97.70;;;;;;5057381;28;20079;-68
2021/05/27 12:16:36;;;;;;;11.85;5.78;;;25.70;97.90;;;;;;5065692;28;20016;-69
2021/05/27 12:19:07;;;;;;;13.85;5.55;;;25.50;97.30;;;;;;5068663;28;20036;-70
2021/05/27 12:21:34;;;;;;;7.93;5.15;;;26.00;98.40;;;;;;5067210;28;20100;-69
2021/05/27 12:24:01;;;;;;;10.25;5.13;;;26.00;97.20;;;;;;5068425;28;20103;-69
2021/05/27 12:26:27;;;;;;;12.07;5.38;;;26.10;97.20;;;;;;5065255;28;20028;-70
2021/05/27 12:28:55;;;;;;;8.68;5.00;;;26.30;97.20;;;;;;5069437;28;20125;-70
2021/05/27 12:31:22;;;;;;;10.63;5.93;;;26.60;95.80;;;;;;5063799;28;20082;-68
2021/05/27 12:33:49;;;;;;;11.70;5.20;;;26.00;95.50;;;;;;5058877;28;20025;-70
2021/05/27 12:36:16;;;;;;;9.13;5.10;;;26.00;96.10;;;;;;5052962;28;20477;-70
2021/05/27 12:38:50;;;;;;;9.32;4.78;;;26.50;95.20;;;;;;5059442;28;20398;-70
2021/05/27 12:41:17;;;;;;;9.73;4.88;;;26.50;96.90;;;;;;5052868;28;20608;-69
2021/05/27 12:43:50;;;;;;;8.13;5.05;;;26.50;95.40;;;;;;5069265;28;20485;-69
2021/05/27 12:46:17;;;;;;;10.15;4.63;;;26.20;95.00;;;;;;5064527;28;20025;-68
2021/05/27 12:48:50;;;;;;;12.02;4.43;;;26.20;95.60;;;;;;5049027;28;20063;-68
2021/05/27 12:51:17;;;;;;;9.25;5.28;;;26.30;95.00;;;;;;5052962;28;20033;-69
2021/05/27 12:53:50;;;;;;;9.95;5.05;;;26.60;95.70;;;;;;5059612;28;20482;-69